• Join FlightAware (Why Join?)
  • Login
  • US Flag 
10:27PM EDT


 

Airport Tracker/Info


-or-


 

Live Flight TrackerFlight Track Log ✈ SKQ45 ✈ 30-Apr-2013 ✈ KOSU - KBUY

Flight Track Log - Related Links

Times and Time Zones

All times are in EDT time to prevent confusion due to time zone crossing. See the SKQ45 flight status page for this flight to view local times or setup timezone preferences in your user account.

Time Position Orientation Groundspeed Altitude Reporting Facility
EDT Latitude Longitude Course Direction KTS MPH feet Rate Location/Type
01:51AM 40.0458 -83.1358 201° Southwest 150 173 3,400  Level Indianapolis Center
01:52AM 40.0097 -83.1033 145° Southeast 152 175 5,000 1,440 Climbing Indianapolis Center
01:53AM 39.9756 -83.0694 143° Southeast 151 174 6,500 1,320 Climbing Indianapolis Center
01:54AM 39.9375 -83.0319 143° Southeast 167 192 7,700 1,320 Climbing Indianapolis Center
01:55AM 39.8969 -82.9919 143° Southeast 178 205 9,200 1,380 Climbing Indianapolis Center
01:57AM 39.8544 -82.9503 143° Southeast 189 217 10,500 1,200 Climbing Indianapolis Center
01:58AM 39.8114 -82.9078 143° Southeast 192 221 11,700 1,200 Climbing Indianapolis Center
01:59AM 39.7672 -82.8642 143° Southeast 197 227 12,900 1,200 Climbing Indianapolis Center
02:00AM 39.7217 -82.8211 144° Southeast 201 231 14,100 1,260 Climbing Indianapolis Center
02:01AM 39.6852 -82.7504 124° Southeast  Level FlightAware Approximate
02:01AM 39.6747 -82.7756 124° Southeast 207 238 15,500  Level Indianapolis Center
02:02AM 39.6275 -82.7281 142° Southeast 212 244 16,700 1,080 Climbing Indianapolis Center
02:03AM 39.5794 -82.6833 144° Southeast 211 243 17,700 900 Climbing Indianapolis Center
02:04AM 39.5303 -82.6361 143° Southeast 216 249 18,600 300 Climbing Indianapolis Center
02:06AM 39.4260 -82.5357 153° Southeast  Level Estimated
02:07AM 39.3700 -82.4825 153° Southeast 264 304 19,000  Level Indianapolis Center
02:08AM 39.3072 -82.4222 143° Southeast 271 312 19,000  Level Indianapolis Center
02:09AM 39.2472 -82.3647 143° Southeast 269 310 19,000  Level Indianapolis Center
02:10AM 39.1864 -82.3078 144° Southeast 270 311 19,000  Level Indianapolis Center
02:11AM 39.1258 -82.2494 143° Southeast 271 312 19,000  Level Indianapolis Center
02:12AM 39.0656 -82.1917 143° Southeast 270 311 19,000  Level Indianapolis Center
02:13AM 39.0053 -82.1344 144° Southeast 269 310 19,000  Level Indianapolis Center
02:14AM 38.9444 -82.0769 144° Southeast 269 310 19,000  Level Indianapolis Center
02:15AM 38.8844 -82.0203 144° Southeast 269 310 19,000  Level Indianapolis Center
02:16AM 38.8239 -81.9647 144° Southeast 268 308 19,000  Level Indianapolis Center
02:17AM 38.7628 -81.9067 143° Southeast 271 312 19,000  Level Indianapolis Center
02:18AM 38.7025 -81.8500 144° Southeast 271 312 19,000  Level Indianapolis Center
02:19AM 38.6422 -81.7928 143° Southeast 271 312 19,000  Level Indianapolis Center
02:20AM 38.5822 -81.7378 144° Southeast 269 310 19,000  Level Indianapolis Center
02:21AM 38.5217 -81.6819 144° Southeast 271 312 19,000  Level Indianapolis Center
02:22AM 38.4608 -81.6256 144° Southeast 272 313 19,000  Level Indianapolis Center
02:23AM 38.3881 -81.5583 144° Southeast 271 312 19,000  Level Indianapolis Center
02:24AM 38.3283 -81.5022 144° Southeast 267 307 19,000  Level Indianapolis Center
02:25AM 38.2669 -81.4461 144° Southeast 271 312 19,000  Level Indianapolis Center
02:26AM 38.2058 -81.3903 144° Southeast 271 312 19,000  Level Indianapolis Center
02:27AM 38.1442 -81.3336 144° Southeast 272 313 19,000  Level Indianapolis Center
02:28AM 38.0831 -81.2775 144° Southeast 271 312 19,000  Level Indianapolis Center
02:29AM 38.0222 -81.2211 144° Southeast 272 313 19,000  Level Indianapolis Center
02:30AM 37.9608 -81.1661 145° Southeast 270 311 19,000  Level Indianapolis Center
02:31AM 37.8997 -81.1106 144° Southeast 271 312 19,000  Level Indianapolis Center
02:31AM 37.8619 -81.0814 149° Southeast 272 313 19,000  Level Washington Center
02:32AM 37.8019 -81.0272 144° Southeast 272 313 19,000  Level Washington Center
02:33AM 37.7419 -80.9703 143° Southeast 272 313 19,000  Level Washington Center
02:34AM 37.6817 -80.9189 146° Southeast 272 313 19,000  Level Washington Center
02:35AM 37.6153 -80.8592 145° Southeast 272 313 19,000  Level Washington Center
02:36AM 37.5531 -80.8022 144° Southeast 272 313 19,000  Level Washington Center
02:37AM 37.4908 -80.7458 144° Southeast 272 313 19,000  Level Washington Center
02:38AM 37.4306 -80.6919 145° Southeast 272 313 19,000  Level Washington Center
02:39AM 37.3764 -80.6439 145° Southeast 272 313 19,000  Level Washington Center
02:40AM 37.3161 -80.5878 143° Southeast 272 313 19,000  Level Washington Center
02:41AM 37.2536 -80.5339 146° Southeast 272 313 19,000  Level Washington Center
02:42AM 37.1872 -80.4750 145° Southeast 272 313 19,000 -600 Level Washington Center
02:43AM 37.1228 -80.4161 144° Southeast 272 313 17,900 -1,200 Descending Washington Center
02:44AM 37.0586 -80.3575 144° Southeast 277 319 16,600 -1,320 Descending Washington Center
02:45AM 36.9939 -80.3014 145° Southeast 277 319 15,300 -1,320 Descending Washington Center
02:47AM 36.9287 -80.2425 144° Southeast  Level FlightAware Approximate
02:54AM 36.5468 -79.9038 145° Southeast  Level FlightAware Approximate
02:55AM 36.4918 -79.8562 145° Southeast  Level FlightAware Approximate
02:56AM 36.4368 -79.8086 145° Southeast  Level FlightAware Approximate
02:57AM 36.3818 -79.7611 145° Southeast  Level FlightAware Approximate
02:58AM 36.3268 -79.7137 145° Southeast  Level FlightAware Approximate
02:59AM 36.2717 -79.6663 145° Southeast  Level FlightAware Approximate
03:00AM 36.2175 -79.6176 141° Southeast  Level FlightAware Approximate
03:01AM 36.1603 -79.5744 149° Southeast  Level FlightAware Approximate
03:02AM 36.1073 -79.5239 141° Southeast  Level FlightAware Approximate